sensor_id;sensor_type;location;lat;lon;timestamp;temperature;humidity
40053;DHT22;25758;48.200;16.338;2022-09-12T00:00:48;16.80;99.90
40053;DHT22;25758;48.200;16.338;2022-09-12T00:03:14;16.80;99.90
40053;DHT22;25758;48.200;16.338;2022-09-12T00:05:44;16.80;99.90
40053;DHT22;25758;48.200;16.338;2022-09-12T00:08:11;16.80;99.90
40053;DHT22;25758;48.200;16.338;2022-09-12T00:10:38;16.80;99.90
40053;DHT22;25758;48.200;16.338;2022-09-12T00:13:05;16.70;99.90
40053;DHT22;25758;48.200;16.338;2022-09-12T00:15:31;16.70;99.90
40053;DHT22;25758;48.200;16.338;2022-09-12T00:17:57;16.70;99.90
40053;DHT22;25758;48.200;16.338;2022-09-12T00:20:22;16.70;99.90
40053;DHT22;25758;48.200;16.338;2022-09-12T00:22:48;16.70;99.90
40053;DHT22;25758;48.200;16.338;2022-09-12T00:25:13;16.70;99.90
40053;DHT22;25758;48.200;16.338;2022-09-12T00:27:39;16.70;99.90
40053;DHT22;25758;48.200;16.338;2022-09-12T00:30:05;16.70;99.90
40053;DHT22;25758;48.200;16.338;2022-09-12T00:32:31;16.60;99.90
40053;DHT22;25758;48.200;16.338;2022-09-12T00:34:56;16.60;99.90
40053;DHT22;25758;48.200;16.338;2022-09-12T00:37:22;16.60;99.90
40053;DHT22;25758;48.200;16.338;2022-09-12T00:39:48;16.60;99.90
40053;DHT22;25758;48.200;16.338;2022-09-12T00:42:13;16.60;99.90
40053;DHT22;25758;48.200;16.338;2022-09-12T00:44:42;16.60;99.90
40053;DHT22;25758;48.200;16.338;2022-09-12T00:47:27;16.60;99.90
40053;DHT22;25758;48.200;16.338;2022-09-12T00:50:11;16.60;99.90
40053;DHT22;25758;48.200;16.338;2022-09-12T00:52:48;16.60;99.90
40053;DHT22;25758;48.200;16.338;2022-09-12T00:55:21;16.50;99.90
40053;DHT22;25758;48.200;16.338;2022-09-12T00:57:59;16.60;99.90
40053;DHT22;25758;48.200;16.338;2022-09-12T01:00:26;16.50;99.90
40053;DHT22;25758;48.200;16.338;2022-09-12T01:03:04;16.50;99.90
40053;DHT22;25758;48.200;16.338;2022-09-12T01:05:35;16.50;99.90
40053;DHT22;25758;48.200;16.338;2022-09-12T01:08:04;16.50;99.90
40053;DHT22;25758;48.200;16.338;2022-09-12T01:10:33;16.40;99.90
40053;DHT22;25758;48.200;16.338;2022-09-12T01:12:59;16.50;99.90
40053;DHT22;25758;48.200;16.338;2022-09-12T01:15:26;16.50;99.90
40053;DHT22;25758;48.200;16.338;2022-09-12T01:18:29;16.50;99.90
40053;DHT22;25758;48.200;16.338;2022-09-12T01:21:28;16.40;99.90
40053;DHT22;25758;48.200;16.338;2022-09-12T01:32:19;16.50;99.90
40053;DHT22;25758;48.200;16.338;2022-09-12T01:37:51;16.50;99.90
40053;DHT22;25758;48.200;16.338;2022-09-12T01:42:55;16.40;99.90
40053;DHT22;25758;48.200;16.338;2022-09-12T01:45:37;16.40;99.90
40053;DHT22;25758;48.200;16.338;2022-09-12T01:48:17;16.40;99.90
40053;DHT22;25758;48.200;16.338;2022-09-12T01:51:06;16.40;99.90
40053;DHT22;25758;48.200;16.338;2022-09-12T01:53:37;16.30;99.90
40053;DHT22;25758;48.200;16.338;2022-09-12T01:56:11;16.40;99.90
40053;DHT22;25758;48.200;16.338;2022-09-12T01:58:49;16.30;99.90
40053;DHT22;25758;48.200;16.338;2022-09-12T02:01:31;16.40;99.90
40053;DHT22;25758;48.200;16.338;2022-09-12T02:06:56;16.40;99.90
40053;DHT22;25758;48.200;16.338;2022-09-12T02:09:51;16.30;99.90
40053;DHT22;25758;48.200;16.338;2022-09-12T02:12:24;16.30;99.90
40053;DHT22;25758;48.200;16.338;2022-09-12T02:14:54;16.30;99.90
40053;DHT22;25758;48.200;16.338;2022-09-12T02:17:24;16.40;99.90
40053;DHT22;25758;48.200;16.338;2022-09-12T02:22:44;16.30;99.90
40053;DHT22;25758;48.200;16.338;2022-09-12T02:25:12;16.40;99.90
40053;DHT22;25758;48.200;16.338;2022-09-12T02:27:45;16.30;99.90
40053;DHT22;25758;48.200;16.338;2022-09-12T02:30:13;16.30;99.90
40053;DHT22;25758;48.200;16.338;2022-09-12T02:35:56;16.40;99.90
40053;DHT22;25758;48.200;16.338;2022-09-12T02:38:32;16.30;99.90
40053;DHT22;25758;48.200;16.338;2022-09-12T02:41:00;16.30;99.90
40053;DHT22;25758;48.200;16.338;2022-09-12T02:43:25;16.30;99.90
40053;DHT22;25758;48.200;16.338;2022-09-12T02:45:51;16.20;99.90
40053;DHT22;25758;48.200;16.338;2022-09-12T02:48:26;16.20;99.90
40053;DHT22;25758;48.200;16.338;2022-09-12T02:50:54;16.20;99.90
40053;DHT22;25758;48.200;16.338;2022-09-12T02:53:21;16.20;99.90
40053;DHT22;25758;48.200;16.338;2022-09-12T02:55:46;16.20;99.90
40053;DHT22;25758;48.200;16.338;2022-09-12T02:58:19;16.10;99.90
40053;DHT22;25758;48.200;16.338;2022-09-12T03:11:59;16.10;99.90
40053;DHT22;25758;48.200;16.338;2022-09-12T03:17:17;16.00;99.90
40053;DHT22;25758;48.200;16.338;2022-09-12T03:22:52;16.00;99.90
40053;DHT22;25758;48.200;16.338;2022-09-12T03:25:33;16.00;99.90
40053;DHT22;25758;48.200;16.338;2022-09-12T03:28:16;16.00;99.90
40053;DHT22;25758;48.200;16.338;2022-09-12T03:30:45;16.00;99.90
40053;DHT22;25758;48.200;16.338;2022-09-12T03:33:22;16.00;99.90
40053;DHT22;25758;48.200;16.338;2022-09-12T03:35:48;16.00;99.90
40053;DHT22;25758;48.200;16.338;2022-09-12T03:38:14;16.00;99.90
40053;DHT22;25758;48.200;16.338;2022-09-12T03:40:40;16.00;99.90
40053;DHT22;25758;48.200;16.338;2022-09-12T03:43:07;16.00;99.90
40053;DHT22;25758;48.200;16.338;2022-09-12T03:45:34;15.90;99.90
40053;DHT22;25758;48.200;16.338;2022-09-12T03:48:00;15.90;99.90
40053;DHT22;25758;48.200;16.338;2022-09-12T03:50:26;15.90;99.90
40053;DHT22;25758;48.200;16.338;2022-09-12T03:52:51;15.80;99.90
40053;DHT22;25758;48.200;16.338;2022-09-12T03:55:17;15.80;99.90
40053;DHT22;25758;48.200;16.338;2022-09-12T03:57:43;15.80;99.90
40053;DHT22;25758;48.200;16.338;2022-09-12T04:00:09;15.80;99.90
40053;DHT22;25758;48.200;16.338;2022-09-12T04:02:35;15.80;99.90
40053;DHT22;25758;48.200;16.338;2022-09-12T04:05:01;15.80;99.90
40053;DHT22;25758;48.200;16.338;2022-09-12T04:07:27;15.80;99.90
40053;DHT22;25758;48.200;16.338;2022-09-12T04:09:52;15.80;99.90
40053;DHT22;25758;48.200;16.338;2022-09-12T04:12:21;15.80;99.90
40053;DHT22;25758;48.200;16.338;2022-09-12T04:14:46;15.90;99.90
40053;DHT22;25758;48.200;16.338;2022-09-12T04:17:13;15.90;99.90
40053;DHT22;25758;48.200;16.338;2022-09-12T04:19:38;15.90;99.90
40053;DHT22;25758;48.200;16.338;2022-09-12T04:22:04;15.90;99.90
40053;DHT22;25758;48.200;16.338;2022-09-12T04:24:30;15.90;99.90
40053;DHT22;25758;48.200;16.338;2022-09-12T04:26:56;15.90;99.90
40053;DHT22;25758;48.200;16.338;2022-09-12T04:29:22;15.80;99.90
40053;DHT22;25758;48.200;16.338;2022-09-12T04:31:47;15.80;99.90
40053;DHT22;25758;48.200;16.338;2022-09-12T04:34:13;15.90;99.90
40053;DHT22;25758;48.200;16.338;2022-09-12T04:36:40;15.90;99.90
40053;DHT22;25758;48.200;16.338;2022-09-12T04:39:06;15.90;99.90
40053;DHT22;25758;48.200;16.338;2022-09-12T04:41:37;15.90;99.90
40053;DHT22;25758;48.200;16.338;2022-09-12T04:44:06;15.90;99.90
40053;DHT22;25758;48.200;16.338;2022-09-12T04:46:35;15.90;99.90
40053;DHT22;25758;48.200;16.338;2022-09-12T04:49:02;15.90;99.90
40053;DHT22;25758;48.200;16.338;2022-09-12T04:51:33;15.90;99.90
40053;DHT22;25758;48.200;16.338;2022-09-12T04:54:04;16.00;99.90
40053;DHT22;25758;48.200;16.338;2022-09-12T04:56:30;16.00;99.90
40053;DHT22;25758;48.200;16.338;2022-09-12T04:58:57;16.00;99.90
40053;DHT22;25758;48.200;16.338;2022-09-12T05:01:24;16.00;99.90
40053;DHT22;25758;48.200;16.338;2022-09-12T05:03:50;16.00;99.90
40053;DHT22;25758;48.200;16.338;2022-09-12T05:06:27;16.00;99.90
40053;DHT22;25758;48.200;16.338;2022-09-12T05:08:54;16.00;99.90
40053;DHT22;25758;48.200;16.338;2022-09-12T05:11:26;16.00;99.90
40053;DHT22;25758;48.200;16.338;2022-09-12T05:13:52;16.10;99.90
40053;DHT22;25758;48.200;16.338;2022-09-12T05:16:19;16.10;99.90
40053;DHT22;25758;48.200;16.338;2022-09-12T05:18:45;16.10;99.90
40053;DHT22;25758;48.200;16.338;2022-09-12T05:21:14;16.10;99.90
40053;DHT22;25758;48.200;16.338;2022-09-12T05:23:40;16.10;99.90
40053;DHT22;25758;48.200;16.338;2022-09-12T05:26:09;16.10;99.90
40053;DHT22;25758;48.200;16.338;2022-09-12T05:28:38;16.10;99.90
40053;DHT22;25758;48.200;16.338;2022-09-12T05:31:10;16.10;99.90
40053;DHT22;25758;48.200;16.338;2022-09-12T05:33:38;16.20;99.90
40053;DHT22;25758;48.200;16.338;2022-09-12T05:36:06;16.20;99.90
40053;DHT22;25758;48.200;16.338;2022-09-12T05:38:36;16.20;99.90
40053;DHT22;25758;48.200;16.338;2022-09-12T05:41:06;16.20;99.90
40053;DHT22;25758;48.200;16.338;2022-09-12T05:43:36;16.20;99.90
40053;DHT22;25758;48.200;16.338;2022-09-12T05:46:23;16.20;99.90
40053;DHT22;25758;48.200;16.338;2022-09-12T05:48:50;16.20;99.90
40053;DHT22;25758;48.200;16.338;2022-09-12T05:51:19;16.20;99.90
40053;DHT22;25758;48.200;16.338;2022-09-12T05:53:47;16.30;99.90
40053;DHT22;25758;48.200;16.338;2022-09-12T05:56:16;16.20;99.90
40053;DHT22;25758;48.200;16.338;2022-09-12T05:58:43;16.30;99.90
40053;DHT22;25758;48.200;16.338;2022-09-12T06:01:14;16.30;99.90
40053;DHT22;25758;48.200;16.338;2022-09-12T06:06:09;16.30;99.90
40053;DHT22;25758;48.200;16.338;2022-09-12T06:08:42;16.40;99.90
40053;DHT22;25758;48.200;16.338;2022-09-12T06:11:10;16.40;99.90
40053;DHT22;25758;48.200;16.338;2022-09-12T06:13:38;16.40;99.90
40053;DHT22;25758;48.200;16.338;2022-09-12T06:16:06;16.50;99.90
40053;DHT22;25758;48.200;16.338;2022-09-12T06:18:33;16.40;99.90
40053;DHT22;25758;48.200;16.338;2022-09-12T06:21:11;16.50;99.90
40053;DHT22;25758;48.200;16.338;2022-09-12T06:23:38;16.50;99.90
40053;DHT22;25758;48.200;16.338;2022-09-12T06:26:05;16.50;99.90
40053;DHT22;25758;48.200;16.338;2022-09-12T06:28:33;16.50;99.90
40053;DHT22;25758;48.200;16.338;2022-09-12T06:31:04;16.50;99.90
40053;DHT22;25758;48.200;16.338;2022-09-12T06:33:32;16.50;99.90
40053;DHT22;25758;48.200;16.338;2022-09-12T06:36:10;16.60;99.90
40053;DHT22;25758;48.200;16.338;2022-09-12T06:38:35;16.60;99.90
40053;DHT22;25758;48.200;16.338;2022-09-12T06:41:06;16.60;99.90
40053;DHT22;25758;48.200;16.338;2022-09-12T06:43:32;16.70;99.90
40053;DHT22;25758;48.200;16.338;2022-09-12T06:45:59;16.70;99.90
40053;DHT22;25758;48.200;16.338;2022-09-12T06:48:25;16.70;99.90
40053;DHT22;25758;48.200;16.338;2022-09-12T06:51:00;16.80;99.90
40053;DHT22;25758;48.200;16.338;2022-09-12T06:53:27;16.80;99.90
40053;DHT22;25758;48.200;16.338;2022-09-12T06:55:58;16.90;99.90
40053;DHT22;25758;48.200;16.338;2022-09-12T06:58:25;16.90;99.90
40053;DHT22;25758;48.200;16.338;2022-09-12T07:00:51;17.00;99.90
40053;DHT22;25758;48.200;16.338;2022-09-12T07:03:17;17.00;99.90
40053;DHT22;25758;48.200;16.338;2022-09-12T07:05:44;17.00;99.90
40053;DHT22;25758;48.200;16.338;2022-09-12T07:08:10;17.10;99.90
40053;DHT22;25758;48.200;16.338;2022-09-12T07:10:36;17.10;99.90
40053;DHT22;25758;48.200;16.338;2022-09-12T07:13:01;17.20;99.90
40053;DHT22;25758;48.200;16.338;2022-09-12T07:15:27;17.20;99.90
40053;DHT22;25758;48.200;16.338;2022-09-12T07:17:53;17.20;99.90
40053;DHT22;25758;48.200;16.338;2022-09-12T07:20:19;17.20;99.90
40053;DHT22;25758;48.200;16.338;2022-09-12T07:22:44;17.30;99.90
40053;DHT22;25758;48.200;16.338;2022-09-12T07:25:11;17.30;99.90
40053;DHT22;25758;48.200;16.338;2022-09-12T07:27:36;17.30;99.90
40053;DHT22;25758;48.200;16.338;2022-09-12T07:30:06;17.30;99.90
40053;DHT22;25758;48.200;16.338;2022-09-12T07:32:32;17.40;99.90
40053;DHT22;25758;48.200;16.338;2022-09-12T07:34:58;17.40;99.90
40053;DHT22;25758;48.200;16.338;2022-09-12T07:37:24;17.40;99.90
40053;DHT22;25758;48.200;16.338;2022-09-12T07:39:50;17.40;99.90
40053;DHT22;25758;48.200;16.338;2022-09-12T07:42:16;17.50;99.90
40053;DHT22;25758;48.200;16.338;2022-09-12T07:44:42;17.50;99.90
40053;DHT22;25758;48.200;16.338;2022-09-12T07:47:08;17.60;99.90
40053;DHT22;25758;48.200;16.338;2022-09-12T07:49:34;17.60;99.90
40053;DHT22;25758;48.200;16.338;2022-09-12T07:52:00;17.70;99.90
40053;DHT22;25758;48.200;16.338;2022-09-12T07:54:26;17.80;99.90
40053;DHT22;25758;48.200;16.338;2022-09-12T07:56:52;17.80;99.90
40053;DHT22;25758;48.200;16.338;2022-09-12T07:59:17;17.80;99.90
40053;DHT22;25758;48.200;16.338;2022-09-12T08:01:43;17.90;99.90
40053;DHT22;25758;48.200;16.338;2022-09-12T08:04:09;18.00;99.90
40053;DHT22;25758;48.200;16.338;2022-09-12T08:06:34;18.00;99.90
40053;DHT22;25758;48.200;16.338;2022-09-12T08:09:01;18.10;99.90
40053;DHT22;25758;48.200;16.338;2022-09-12T08:11:28;18.20;99.90
40053;DHT22;25758;48.200;16.338;2022-09-12T08:13:54;18.20;99.90
40053;DHT22;25758;48.200;16.338;2022-09-12T08:16:25;18.20;99.90
40053;DHT22;25758;48.200;16.338;2022-09-12T08:18:51;18.30;99.90
40053;DHT22;25758;48.200;16.338;2022-09-12T08:21:22;18.40;99.90
40053;DHT22;25758;48.200;16.338;2022-09-12T08:23:56;18.80;99.90
40053;DHT22;25758;48.200;16.338;2022-09-12T08:26:22;18.90;99.90
40053;DHT22;25758;48.200;16.338;2022-09-12T08:28:49;18.90;99.90
40053;DHT22;25758;48.200;16.338;2022-09-12T08:31:17;19.10;99.90
40053;DHT22;25758;48.200;16.338;2022-09-12T08:33:44;19.30;99.90
40053;DHT22;25758;48.200;16.338;2022-09-12T08:36:17;19.60;99.90
40053;DHT22;25758;48.200;16.338;2022-09-12T08:38:47;20.00;99.90
40053;DHT22;25758;48.200;16.338;2022-09-12T08:41:34;20.30;99.90
40053;DHT22;25758;48.200;16.338;2022-09-12T08:44:09;20.50;99.90
40053;DHT22;25758;48.200;16.338;2022-09-12T08:52:14;20.90;98.60
40053;DHT22;25758;48.200;16.338;2022-09-12T08:54:42;21.00;98.60
40053;DHT22;25758;48.200;16.338;2022-09-12T08:57:10;21.00;98.50
40053;DHT22;25758;48.200;16.338;2022-09-12T08:59:43;20.90;98.50
40053;DHT22;25758;48.200;16.338;2022-09-12T09:02:29;21.10;98.40
40053;DHT22;25758;48.200;16.338;2022-09-12T09:05:20;21.20;97.10
40053;DHT22;25758;48.200;16.338;2022-09-12T09:16:32;21.50;97.80
40053;DHT22;25758;48.200;16.338;2022-09-12T09:19:07;21.80;97.20
40053;DHT22;25758;48.200;16.338;2022-09-12T09:21:42;22.10;96.80
40053;DHT22;25758;48.200;16.338;2022-09-12T09:24:16;22.40;96.20
40053;DHT22;25758;48.200;16.338;2022-09-12T09:29:27;22.80;95.00
40053;DHT22;25758;48.200;16.338;2022-09-12T09:31:56;22.70;94.60
40053;DHT22;25758;48.200;16.338;2022-09-12T09:34:28;22.60;94.80
40053;DHT22;25758;48.200;16.338;2022-09-12T09:44:45;22.50;93.90
40053;DHT22;25758;48.200;16.338;2022-09-12T09:47:11;22.30;94.10
40053;DHT22;25758;48.200;16.338;2022-09-12T09:49:37;22.30;94.60
40053;DHT22;25758;48.200;16.338;2022-09-12T09:52:06;22.20;94.10
40053;DHT22;25758;48.200;16.338;2022-09-12T09:54:42;22.10;94.40
40053;DHT22;25758;48.200;16.338;2022-09-12T10:00:19;22.00;94.40
40053;DHT22;25758;48.200;16.338;2022-09-12T10:05:30;21.80;94.60
40053;DHT22;25758;48.200;16.338;2022-09-12T10:07:56;21.80;94.90
40053;DHT22;25758;48.200;16.338;2022-09-12T10:10:23;21.80;94.80
40053;DHT22;25758;48.200;16.338;2022-09-12T10:12:50;21.80;94.90
40053;DHT22;25758;48.200;16.338;2022-09-12T10:15:17;21.80;95.10
40053;DHT22;25758;48.200;16.338;2022-09-12T10:17:45;21.90;95.30
40053;DHT22;25758;48.200;16.338;2022-09-12T10:20:32;22.10;94.80
40053;DHT22;25758;48.200;16.338;2022-09-12T10:23:45;22.30;94.40
40053;DHT22;25758;48.200;16.338;2022-09-12T10:25:59;22.40;94.40
40053;DHT22;25758;48.200;16.338;2022-09-12T10:28:32;22.40;94.10
40053;DHT22;25758;48.200;16.338;2022-09-12T10:31:00;22.40;94.00
40053;DHT22;25758;48.200;16.338;2022-09-12T10:33:27;22.80;94.20
40053;DHT22;25758;48.200;16.338;2022-09-12T10:35:54;23.20;93.40
40053;DHT22;25758;48.200;16.338;2022-09-12T10:38:29;23.60;93.00
40053;DHT22;25758;48.200;16.338;2022-09-12T10:41:02;23.80;92.30
40053;DHT22;25758;48.200;16.338;2022-09-12T10:43:40;23.90;91.70
40053;DHT22;25758;48.200;16.338;2022-09-12T10:48:46;24.50;90.70
40053;DHT22;25758;48.200;16.338;2022-09-12T10:53:55;24.50;90.30
40053;DHT22;25758;48.200;16.338;2022-09-12T10:56:31;24.40;90.00
40053;DHT22;25758;48.200;16.338;2022-09-12T11:10:19;25.10;87.70
40053;DHT22;25758;48.200;16.338;2022-09-12T11:21:00;24.80;88.10
40053;DHT22;25758;48.200;16.338;2022-09-12T11:28:58;25.30;86.50
40053;DHT22;25758;48.200;16.338;2022-09-12T11:31:55;25.50;85.30
40053;DHT22;25758;48.200;16.338;2022-09-12T11:34:55;25.60;84.70
40053;DHT22;25758;48.200;16.338;2022-09-12T11:37:32;25.70;84.80
40053;DHT22;25758;48.200;16.338;2022-09-12T11:42:40;25.40;85.30
40053;DHT22;25758;48.200;16.338;2022-09-12T11:45:38;25.20;86.00
40053;DHT22;25758;48.200;16.338;2022-09-12T11:48:05;25.10;85.60
40053;DHT22;25758;48.200;16.338;2022-09-12T11:50:32;25.10;85.10
40053;DHT22;25758;48.200;16.338;2022-09-12T11:53:04;25.10;84.40
40053;DHT22;25758;48.200;16.338;2022-09-12T11:55:46;25.40;85.30
40053;DHT22;25758;48.200;16.338;2022-09-12T11:58:12;24.80;84.70
40053;DHT22;25758;48.200;16.338;2022-09-12T12:00:51;24.80;84.70
40053;DHT22;25758;48.200;16.338;2022-09-12T12:03:43;24.70;86.80
40053;DHT22;25758;48.200;16.338;2022-09-12T12:06:47;24.70;86.70
40053;DHT22;25758;48.200;16.338;2022-09-12T12:09:13;24.60;85.60
40053;DHT22;25758;48.200;16.338;2022-09-12T12:11:43;24.50;85.80
40053;DHT22;25758;48.200;16.338;2022-09-12T12:14:48;24.40;86.40
40053;DHT22;25758;48.200;16.338;2022-09-12T12:17:22;24.20;86.50
40053;DHT22;25758;48.200;16.338;2022-09-12T12:20:02;24.00;87.30
40053;DHT22;25758;48.200;16.338;2022-09-12T12:22:29;24.00;88.40
40053;DHT22;25758;48.200;16.338;2022-09-12T12:35:43;23.80;87.90
40053;DHT22;25758;48.200;16.338;2022-09-12T12:38:39;23.70;87.50
40053;DHT22;25758;48.200;16.338;2022-09-12T12:43:52;23.60;88.30
40053;DHT22;25758;48.200;16.338;2022-09-12T12:46:26;23.60;88.00
40053;DHT22;25758;48.200;16.338;2022-09-12T12:51:28;23.70;88.80
40053;DHT22;25758;48.200;16.338;2022-09-12T12:53:56;23.70;87.90
40053;DHT22;25758;48.200;16.338;2022-09-12T12:56:38;23.70;87.90
40053;DHT22;25758;48.200;16.338;2022-09-12T12:59:19;23.60;87.70
40053;DHT22;25758;48.200;16.338;2022-09-12T13:01:52;23.60;88.50
40053;DHT22;25758;48.200;16.338;2022-09-12T13:04:22;23.60;89.00
40053;DHT22;25758;48.200;16.338;2022-09-12T13:06:59;23.60;88.40
40053;DHT22;25758;48.200;16.338;2022-09-12T13:09:38;23.60;88.10
40053;DHT22;25758;48.200;16.338;2022-09-12T13:12:11;23.50;87.80
40053;DHT22;25758;48.200;16.338;2022-09-12T13:17:47;23.40;89.10
40053;DHT22;25758;48.200;16.338;2022-09-12T13:20:15;23.30;86.90
40053;DHT22;25758;48.200;16.338;2022-09-12T13:22:43;23.30;86.90
40053;DHT22;25758;48.200;16.338;2022-09-12T13:25:54;23.30;86.50
40053;DHT22;25758;48.200;16.338;2022-09-12T13:33:48;23.30;87.10
40053;DHT22;25758;48.200;16.338;2022-09-12T13:42:33;23.30;83.70
40053;DHT22;25758;48.200;16.338;2022-09-12T13:47:42;23.40;83.20
40053;DHT22;25758;48.200;16.338;2022-09-12T13:50:21;23.40;84.30
40053;DHT22;25758;48.200;16.338;2022-09-12T13:52:52;23.40;83.40
40053;DHT22;25758;48.200;16.338;2022-09-12T13:55:32;23.40;83.50
40053;DHT22;25758;48.200;16.338;2022-09-12T13:58:25;23.30;83.20
40053;DHT22;25758;48.200;16.338;2022-09-12T14:03:53;23.50;85.10
40053;DHT22;25758;48.200;16.338;2022-09-12T14:06:59;23.40;85.90
40053;DHT22;25758;48.200;16.338;2022-09-12T14:09:38;23.40;86.70
40053;DHT22;25758;48.200;16.338;2022-09-12T14:12:24;23.30;88.00
40053;DHT22;25758;48.200;16.338;2022-09-12T14:14:51;23.30;89.10
40053;DHT22;25758;48.200;16.338;2022-09-12T14:17:31;23.20;88.90
40053;DHT22;25758;48.200;16.338;2022-09-12T14:20:05;23.10;89.30
40053;DHT22;25758;48.200;16.338;2022-09-12T14:22:32;23.10;89.10
40053;DHT22;25758;48.200;16.338;2022-09-12T14:24:59;23.00;89.10
40053;DHT22;25758;48.200;16.338;2022-09-12T14:27:28;22.80;89.40
40053;DHT22;25758;48.200;16.338;2022-09-12T14:30:02;22.80;89.30
40053;DHT22;25758;48.200;16.338;2022-09-12T14:32:28;22.80;89.20
40053;DHT22;25758;48.200;16.338;2022-09-12T14:35:16;22.80;89.10
40053;DHT22;25758;48.200;16.338;2022-09-12T14:37:45;22.70;88.70
40053;DHT22;25758;48.200;16.338;2022-09-12T14:40:21;22.70;89.10
40053;DHT22;25758;48.200;16.338;2022-09-12T14:42:48;22.80;89.00
40053;DHT22;25758;48.200;16.338;2022-09-12T14:45:28;22.80;88.80
40053;DHT22;25758;48.200;16.338;2022-09-12T14:47:56;22.80;88.90
40053;DHT22;25758;48.200;16.338;2022-09-12T14:50:25;22.90;89.00
40053;DHT22;25758;48.200;16.338;2022-09-12T14:53:06;22.90;89.30
40053;DHT22;25758;48.200;16.338;2022-09-12T14:55:51;22.90;89.10
40053;DHT22;25758;48.200;16.338;2022-09-12T15:00:58;23.00;88.40
40053;DHT22;25758;48.200;16.338;2022-09-12T15:03:27;23.00;89.00
40053;DHT22;25758;48.200;16.338;2022-09-12T15:05:53;23.10;88.30
40053;DHT22;25758;48.200;16.338;2022-09-12T15:08:19;23.10;88.30
40053;DHT22;25758;48.200;16.338;2022-09-12T15:10:45;23.20;87.50
40053;DHT22;25758;48.200;16.338;2022-09-12T15:13:16;23.20;88.00
40053;DHT22;25758;48.200;16.338;2022-09-12T15:15:51;23.30;87.80
40053;DHT22;25758;48.200;16.338;2022-09-12T15:18:18;23.30;87.70
40053;DHT22;25758;48.200;16.338;2022-09-12T15:20:46;23.20;87.50
40053;DHT22;25758;48.200;16.338;2022-09-12T15:23:24;23.20;87.40
40053;DHT22;25758;48.200;16.338;2022-09-12T15:25:51;23.10;85.90
40053;DHT22;25758;48.200;16.338;2022-09-12T15:28:22;23.10;86.00
40053;DHT22;25758;48.200;16.338;2022-09-12T15:30:50;23.10;86.40
40053;DHT22;25758;48.200;16.338;2022-09-12T15:33:21;23.00;86.50
40053;DHT22;25758;48.200;16.338;2022-09-12T15:35:48;23.00;86.70
40053;DHT22;25758;48.200;16.338;2022-09-12T15:38:15;23.00;87.00
40053;DHT22;25758;48.200;16.338;2022-09-12T15:40:41;23.00;86.70
40053;DHT22;25758;48.200;16.338;2022-09-12T15:43:06;23.00;86.50
40053;DHT22;25758;48.200;16.338;2022-09-12T15:45:33;22.90;86.70
40053;DHT22;25758;48.200;16.338;2022-09-12T15:47:59;22.90;86.70
40053;DHT22;25758;48.200;16.338;2022-09-12T15:50:26;22.80;86.90
40053;DHT22;25758;48.200;16.338;2022-09-12T15:52:53;22.70;87.30
40053;DHT22;25758;48.200;16.338;2022-09-12T15:55:21;22.70;87.70
40053;DHT22;25758;48.200;16.338;2022-09-12T15:57:47;22.60;87.70
40053;DHT22;25758;48.200;16.338;2022-09-12T16:00:14;22.50;88.40
40053;DHT22;25758;48.200;16.338;2022-09-12T16:02:42;22.50;87.90
40053;DHT22;25758;48.200;16.338;2022-09-12T16:05:13;22.50;87.80
40053;DHT22;25758;48.200;16.338;2022-09-12T16:07:39;22.40;86.10
40053;DHT22;25758;48.200;16.338;2022-09-12T16:10:05;22.30;85.80
40053;DHT22;25758;48.200;16.338;2022-09-12T16:12:31;22.20;85.30
40053;DHT22;25758;48.200;16.338;2022-09-12T16:14:56;22.20;85.00
40053;DHT22;25758;48.200;16.338;2022-09-12T16:17:22;22.10;83.70
40053;DHT22;25758;48.200;16.338;2022-09-12T16:19:48;22.10;83.90
40053;DHT22;25758;48.200;16.338;2022-09-12T16:22:13;22.00;84.40
40053;DHT22;25758;48.200;16.338;2022-09-12T16:24:39;21.90;84.90
40053;DHT22;25758;48.200;16.338;2022-09-12T16:27:05;21.90;85.10
40053;DHT22;25758;48.200;16.338;2022-09-12T16:29:30;21.90;85.50
40053;DHT22;25758;48.200;16.338;2022-09-12T16:31:56;21.80;85.60
40053;DHT22;25758;48.200;16.338;2022-09-12T16:34:22;21.80;86.80
40053;DHT22;25758;48.200;16.338;2022-09-12T16:36:47;21.70;86.70
40053;DHT22;25758;48.200;16.338;2022-09-12T16:39:13;21.70;87.40
40053;DHT22;25758;48.200;16.338;2022-09-12T16:41:39;21.70;88.20
40053;DHT22;25758;48.200;16.338;2022-09-12T16:44:07;21.60;88.70
40053;DHT22;25758;48.200;16.338;2022-09-12T16:46:32;21.60;89.40
40053;DHT22;25758;48.200;16.338;2022-09-12T16:48:59;21.50;90.00
40053;DHT22;25758;48.200;16.338;2022-09-12T16:51:34;21.50;90.20
40053;DHT22;25758;48.200;16.338;2022-09-12T16:54:02;21.50;90.30
40053;DHT22;25758;48.200;16.338;2022-09-12T16:56:29;21.40;90.50
40053;DHT22;25758;48.200;16.338;2022-09-12T16:58:54;21.40;90.70
40053;DHT22;25758;48.200;16.338;2022-09-12T17:01:22;21.40;90.80
40053;DHT22;25758;48.200;16.338;2022-09-12T17:03:55;21.30;90.90
40053;DHT22;25758;48.200;16.338;2022-09-12T17:06:21;21.30;90.90
40053;DHT22;25758;48.200;16.338;2022-09-12T17:08:49;21.20;90.90
40053;DHT22;25758;48.200;16.338;2022-09-12T17:11:23;21.20;90.90
40053;DHT22;25758;48.200;16.338;2022-09-12T17:13:55;21.20;91.00
40053;DHT22;25758;48.200;16.338;2022-09-12T17:16:21;21.20;91.10
40053;DHT22;25758;48.200;16.338;2022-09-12T17:18:48;21.10;91.20
40053;DHT22;25758;48.200;16.338;2022-09-12T17:21:14;21.10;91.20
40053;DHT22;25758;48.200;16.338;2022-09-12T17:23:40;21.00;91.10
40053;DHT22;25758;48.200;16.338;2022-09-12T17:26:06;21.00;91.30
40053;DHT22;25758;48.200;16.338;2022-09-12T17:28:32;21.00;91.30
40053;DHT22;25758;48.200;16.338;2022-09-12T17:31:00;20.90;91.40
40053;DHT22;25758;48.200;16.338;2022-09-12T17:33:26;20.90;91.40
40053;DHT22;25758;48.200;16.338;2022-09-12T17:35:52;20.90;91.70
40053;DHT22;25758;48.200;16.338;2022-09-12T17:38:18;20.80;91.90
40053;DHT22;25758;48.200;16.338;2022-09-12T17:40:44;20.80;92.10
40053;DHT22;25758;48.200;16.338;2022-09-12T17:43:14;20.80;92.20
40053;DHT22;25758;48.200;16.338;2022-09-12T17:45:40;20.80;92.30
40053;DHT22;25758;48.200;16.338;2022-09-12T17:48:07;20.70;92.20
40053;DHT22;25758;48.200;16.338;2022-09-12T17:50:36;20.60;92.30
40053;DHT22;25758;48.200;16.338;2022-09-12T17:53:02;20.60;92.50
40053;DHT22;25758;48.200;16.338;2022-09-12T17:55:28;20.60;92.70
40053;DHT22;25758;48.200;16.338;2022-09-12T17:57:59;20.50;92.80
40053;DHT22;25758;48.200;16.338;2022-09-12T18:00:26;20.50;93.10